Grande Italia — IBTF — position and weather

sailwx.info

Track history (hours):
 
Tides and Currents Weather Stations Pressure Air Temp Water Temp Dewpoint Dewpoint Depression Visibility Wind Speed Wind Dir Waves Ship Positions

Grande Italia

Last reported at 2016-Aug-27 18:33 UTC. Time now 2016-Aug-27 18:46 UTC.
Position N 40°26' E 029°05'.

Length 177 m; draft 7.7 m.

Type: Cargo ship. MMSI: 247039300.

Date/timePositionNaut miles runAvg speedWind from/ knotsBaromVisibWave heightAir tempDewpointWater temp
2016-Aug-27 18:33N 40°26' E 029°05'16 7.5
2016-Aug-27 16:29N 40°40' E 028°56'1718.4
2016-Aug-27 15:33N 40°44' E 029°18'1313.0
2016-Aug-27 14:34N 40°45' E 029°35'2 0.1
2016-Aug-26 19:14N 40°44' E 029°37'913.6
2016-Aug-26 18:33N 40°44' E 029°25'1414.0
2016-Aug-26 17:33N 40°42' E 029°07'1917.6
2016-Aug-26 16:29N 40°40' E 028°42'39311.6
2016-Aug-25 06:30N 34°23' E 031°03'4118.2
2016-Aug-25 04:15N 34°03' E 031°46'1418.4
2016-Aug-25 03:29N 33°56' E 032°01'2318.6
2016-Aug-25 02:13N 33°44' E 032°26'1318.5
2016-Aug-25 01:32N 33°38' E 032°39'1918.4
2016-Aug-25 00:30N 33°29' E 032°59'1718.3
2016-Aug-24 23:33N 33°21' E 033°17'1818.5
2016-Aug-24 22:33N 33°12' E 033°37'2218.7
2016-Aug-24 21:23N 33°02' E 033°60'1518.3
2016-Aug-24 20:33N 32°59' E 034°17'1818.1
2016-Aug-24 19:33N 32°56' E 034°39'1817.8
2016-Aug-24 18:34N 32°52' E 034°59'3 2.4
2016-Aug-24 17:31N 32°49' E 035°00'0 0.0
2016-Aug-24 16:31N 32°49' E 035°00'0 0.0
2016-Aug-24 15:31N 32°49' E 035°00'0 0.0
2016-Aug-24 14:31N 32°49' E 035°00'0 0.0
2016-Aug-24 13:28N 32°49' E 035°00'0 0.0
2016-Aug-24 12:31N 32°49' E 035°00'0 0.0
2016-Aug-24 11:31N 32°49' E 035°00'0 0.0
2016-Aug-24 10:31N 32°49' E 035°00'0 0.0
2016-Aug-24 09:31N 32°49' E 035°00'0 0.0
2016-Aug-24 08:31N 32°49' E 035°00'0 0.0
2016-Aug-24 07:31N 32°49' E 035°00'0 0.0
2016-Aug-24 06:31N 32°49' E 035°00'0 0.0
2016-Aug-24 04:31N 32°49' E 035°00'0 0.0
2016-Aug-24 03:31N 32°49' E 035°00'0 0.0
2016-Aug-24 02:31N 32°49' E 035°00'0 0.0
2016-Aug-24 01:31N 32°49' E 035°00'0 0.0
2016-Aug-24 00:31N 32°49' E 035°00'0 0.0
2016-Aug-23 23:31N 32°49' E 035°00'0 0.0
2016-Aug-23 22:31N 32°49' E 035°00'0 0.0
2016-Aug-23 21:31N 32°49' E 035°00'0 0.1
2016-Aug-23 20:34N 32°49' E 035°00'6 5.9
2016-Aug-23 19:33N 32°53' E 034°55'1918.4
2016-Aug-23 18:33N 32°56' E 034°33'1918.4
2016-Aug-23 17:32N 32°59' E 034°11'1717.4
2016-Aug-23 16:33N 32°58' E 033°51'2017.8
2016-Aug-23 15:26N 32°51' E 033°29'1817.8
2016-Aug-23 14:27N 32°46' E 033°09'1618.1
2016-Aug-23 13:32N 32°40' E 032°51'1818.2
2016-Aug-23 12:33N 32°34' E 032°31'2018.3
2016-Aug-23 11:27N 32°26' E 032°09'1718.4
2016-Aug-23 10:32N 32°20' E 031°50'1818.3
2016-Aug-23 09:33N 32°14' E 031°30'2018.4
2016-Aug-23 08:27N 32°06' E 031°08'1718.9
2016-Aug-23 07:33N 32°00' E 030°49'  
2016-Aug-19 21:14N 44°11' E 013°14'3117.2
2016-Aug-19 19:26N 44°40' E 012°60'1517.4
2016-Aug-19 18:33N 44°54' E 012°51'1717.1
2016-Aug-19 17:34N 45°08' E 012°38'1616.2
2016-Aug-19 16:34N 45°20' E 012°21'7 7.2
2016-Aug-19 15:33N 45°26' E 012°16'2 1.5
2016-Aug-19 14:31N 45°27' E 012°15'0 0.0
2016-Aug-19 13:28N 45°27' E 012°15'0 0.0
2016-Aug-19 12:31N 45°27' E 012°15'0 0.0
2016-Aug-19 11:31N 45°27' E 012°15'0 0.0
2016-Aug-19 10:31N 45°27' E 012°15'0 0.0
2016-Aug-19 09:22N 45°27' E 012°15'0 0.0
2016-Aug-19 08:31N 45°27' E 012°15'0 0.0
2016-Aug-19 07:31N 45°27' E 012°15'0 0.0
2016-Aug-19 06:31N 45°27' E 012°15'0 0.3
2016-Aug-19 05:33N 45°27' E 012°16'6 6.4
2016-Aug-19 04:33N 45°21' E 012°17'1111.3
2016-Aug-19 03:33N 45°17' E 012°31'1110.7
2016-Aug-19 02:33N 45°10' E 012°44'9 8.5
2016-Aug-19 01:33N 45°03' E 012°51'9 9.1
2016-Aug-19 00:33N 44°55' E 012°56'9 8.5
2016-Aug-18 23:28N 44°46' E 012°55'1212.8
2016-Aug-18 22:34N 44°37' E 012°44'1212.4
2016-Aug-18 21:33N 44°28' E 012°32'1111.3
2016-Aug-18 20:33N 44°29' E 012°16'5 0.2
2016-Aug-17 22:12N 44°30' E 012°23'1015.6
2016-Aug-17 21:33N 44°33' E 012°37'1917.5
2016-Aug-17 20:27N 44°49' E 012°50'1517.2
2016-Aug-17 19:33N 45°04' E 012°58'  
Track history (hours):
 
Tides and Currents Weather Stations Pressure Air Temp Water Temp Dewpoint Dewpoint Depression Visibility Wind Speed Wind Dir Waves Ship Positions

Grande Italia

Last reported at 2016-Aug-27 18:33 UTC. Time now 2016-Aug-27 18:46 UTC.
Position N 40°26' E 029°05'.

Length 177 m; draft 7.7 m.

Type: Cargo ship. MMSI: 247039300.

Date/timePositionNaut miles runAvg speedWind from/ knotsBaromVisibWave heightAir tempDewpointWater temp
2016-Aug-27 18:33N 40°26' E 029°05'16 7.5
2016-Aug-27 16:29N 40°40' E 028°56'1718.4
2016-Aug-27 15:33N 40°44' E 029°18'1313.0
2016-Aug-27 14:34N 40°45' E 029°35'2 0.1
2016-Aug-26 19:14N 40°44' E 029°37'913.6
2016-Aug-26 18:33N 40°44' E 029°25'1414.0
2016-Aug-26 17:33N 40°42' E 029°07'1917.6
2016-Aug-26 16:29N 40°40' E 028°42'39311.6
2016-Aug-25 06:30N 34°23' E 031°03'4118.2
2016-Aug-25 04:15N 34°03' E 031°46'1418.4
2016-Aug-25 03:29N 33°56' E 032°01'2318.6
2016-Aug-25 02:13N 33°44' E 032°26'1318.5
2016-Aug-25 01:32N 33°38' E 032°39'1918.4
2016-Aug-25 00:30N 33°29' E 032°59'1718.3
2016-Aug-24 23:33N 33°21' E 033°17'1818.5
2016-Aug-24 22:33N 33°12' E 033°37'2218.7
2016-Aug-24 21:23N 33°02' E 033°60'1518.3
2016-Aug-24 20:33N 32°59' E 034°17'1818.1
2016-Aug-24 19:33N 32°56' E 034°39'1817.8
2016-Aug-24 18:34N 32°52' E 034°59'3 2.4
2016-Aug-24 17:31N 32°49' E 035°00'0 0.0
2016-Aug-24 16:31N 32°49' E 035°00'0 0.0
2016-Aug-24 15:31N 32°49' E 035°00'0 0.0
2016-Aug-24 14:31N 32°49' E 035°00'0 0.0
2016-Aug-24 13:28N 32°49' E 035°00'0 0.0
2016-Aug-24 12:31N 32°49' E 035°00'0 0.0
2016-Aug-24 11:31N 32°49' E 035°00'0 0.0
2016-Aug-24 10:31N 32°49' E 035°00'0 0.0
2016-Aug-24 09:31N 32°49' E 035°00'0 0.0
2016-Aug-24 08:31N 32°49' E 035°00'0 0.0
2016-Aug-24 07:31N 32°49' E 035°00'0 0.0
2016-Aug-24 06:31N 32°49' E 035°00'0 0.0
2016-Aug-24 04:31N 32°49' E 035°00'0 0.0
2016-Aug-24 03:31N 32°49' E 035°00'0 0.0
2016-Aug-24 02:31N 32°49' E 035°00'0 0.0
2016-Aug-24 01:31N 32°49' E 035°00'0 0.0
2016-Aug-24 00:31N 32°49' E 035°00'0 0.0
2016-Aug-23 23:31N 32°49' E 035°00'0 0.0
2016-Aug-23 22:31N 32°49' E 035°00'0 0.0
2016-Aug-23 21:31N 32°49' E 035°00'0 0.1
2016-Aug-23 20:34N 32°49' E 035°00'6 5.9
2016-Aug-23 19:33N 32°53' E 034°55'1918.4
2016-Aug-23 18:33N 32°56' E 034°33'1918.4
2016-Aug-23 17:32N 32°59' E 034°11'1717.4
2016-Aug-23 16:33N 32°58' E 033°51'2017.8
2016-Aug-23 15:26N 32°51' E 033°29'1817.8
2016-Aug-23 14:27N 32°46' E 033°09'1618.1
2016-Aug-23 13:32N 32°40' E 032°51'1818.2
2016-Aug-23 12:33N 32°34' E 032°31'2018.3
2016-Aug-23 11:27N 32°26' E 032°09'1718.4
2016-Aug-23 10:32N 32°20' E 031°50'1818.3
2016-Aug-23 09:33N 32°14' E 031°30'2018.4
2016-Aug-23 08:27N 32°06' E 031°08'1718.9
2016-Aug-23 07:33N 32°00' E 030°49'  
2016-Aug-19 21:14N 44°11' E 013°14'3117.2
2016-Aug-19 19:26N 44°40' E 012°60'1517.4
2016-Aug-19 18:33N 44°54' E 012°51'1717.1
2016-Aug-19 17:34N 45°08' E 012°38'1616.2
2016-Aug-19 16:34N 45°20' E 012°21'7 7.2
2016-Aug-19 15:33N 45°26' E 012°16'2 1.5
2016-Aug-19 14:31N 45°27' E 012°15'0 0.0
2016-Aug-19 13:28N 45°27' E 012°15'0 0.0
2016-Aug-19 12:31N 45°27' E 012°15'0 0.0
2016-Aug-19 11:31N 45°27' E 012°15'0 0.0
2016-Aug-19 10:31N 45°27' E 012°15'0 0.0
2016-Aug-19 09:22N 45°27' E 012°15'0 0.0
2016-Aug-19 08:31N 45°27' E 012°15'0 0.0
2016-Aug-19 07:31N 45°27' E 012°15'0 0.0
2016-Aug-19 06:31N 45°27' E 012°15'0 0.3
2016-Aug-19 05:33N 45°27' E 012°16'6 6.4
2016-Aug-19 04:33N 45°21' E 012°17'1111.3
2016-Aug-19 03:33N 45°17' E 012°31'1110.7
2016-Aug-19 02:33N 45°10' E 012°44'9 8.5
2016-Aug-19 01:33N 45°03' E 012°51'9 9.1
2016-Aug-19 00:33N 44°55' E 012°56'9 8.5
2016-Aug-18 23:28N 44°46' E 012°55'1212.8
2016-Aug-18 22:34N 44°37' E 012°44'1212.4
2016-Aug-18 21:33N 44°28' E 012°32'1111.3
2016-Aug-18 20:33N 44°29' E 012°16'5 0.2
2016-Aug-17 22:12N 44°30' E 012°23'1015.6
2016-Aug-17 21:33N 44°33' E 012°37'1917.5
2016-Aug-17 20:27N 44°49' E 012°50'1517.2
2016-Aug-17 19:33N 45°04' E 012°58'  

Dump ship's entire track history